Terminal Aerodrome Forecast
Issued by NWS Nashville, TN

Home | Current Version | Previous Version | Text Only | Print | Product List | Glossary On
Versions: 1 2 3 4 5 6 7 8 9 10 11 12 13 14 15 16 17 18 19 20 21 22
000
FTUS44 KOHX 312300
TAFCSV
TAF
KCSV 312338Z 0100/0124 VRB04KT P6SM OVC100
     FM011100 17004KT P6SM OVC100
     FM011500 18010G18KT P6SM VCSH OVC050
     FM011800 18010G18KT 6SM -SHRA BR BKN030 OVC050
     FM012100 18010G20KT 4SM -RA BR BKN006 OVC011=

USA.gov is the U.S. government's official web portal to all federal, state and local government web resources and services.